Time;durP1;ratioP1;P1;durP2;ratioP2;P2;SDS_P1;SDS_P2;PMS_P1;PMS_P2;Temp;Humidity;BMP_temperature;BMP_pressure;BME280_temperature;BME280_humidity;BME280_pressure;Samples;Min_cycle;Max_cycle;Signal;HPM_P1;HPM_P2
2023/05/24 00:02:48;;;;;;;3.00;1.90;;;;;;;;;;12879654;23;20036;-85
2023/05/24 00:07:51;;;;;;;3.80;2.00;;;;;;;;;;12909028;23;20055;-85
2023/05/24 00:12:55;;;;;;;3.53;1.80;;;;;;;;;;12907742;23;20419;-85
2023/05/24 00:18:00;;;;;;;3.72;1.67;;;;;;;;;;12878756;23;20460;-85
2023/05/24 00:23:03;;;;;;;2.83;1.60;;;;;;;;;;12876965;23;20024;-85
2023/05/24 00:28:06;;;;;;;4.32;1.95;;;;;;;;;;12880310;23;20016;-85
2023/05/24 00:33:11;;;;;;;2.45;1.48;;;;;;;;;;12893520;23;20024;-85
2023/05/24 00:38:14;;;;;;;3.30;1.55;;;;;;;;;;12915479;23;20023;-85
2023/05/24 00:43:18;;;;;;;3.60;1.88;;;;;;;;;;12880161;23;20051;-85
2023/05/24 00:48:27;;;;;;;2.95;1.55;;;;;;;;;;12883428;23;20059;-86
2023/05/24 00:53:31;;;;;;;2.38;1.13;;;;;;;;;;12881558;23;20028;-85
2023/05/24 00:58:35;;;;;;;4.18;1.45;;;;;;;;;;12917358;23;20031;-86
2023/05/24 01:03:40;;;;;;;3.45;1.35;;;;;;;;;;12881818;23;20115;-85
2023/05/24 01:09:01;;;;;;;1.95;1.35;;;;;;;;;;12883087;23;20030;-85
2023/05/24 01:14:19;;;;;;;1.95;1.30;;;;;;;;;;12912974;23;20036;-85
2023/05/24 01:19:47;;;;;;;3.55;1.45;;;;;;;;;;12880722;23;20028;-84
2023/05/24 01:24:58;;;;;;;6.65;1.83;;;;;;;;;;12882791;23;20294;-85
2023/05/24 01:30:04;;;;;;;3.05;1.45;;;;;;;;;;12883335;23;20039;-85
2023/05/24 01:35:11;;;;;;;;;;;;;;;;;;12885073;23;20406;-85
2023/05/24 01:40:14;;;;;;;2.20;1.42;;;;;;;;;;12886060;23;19916;-85
2023/05/24 01:45:29;;;;;;;2.83;1.77;;;;;;;;;;12881052;23;20230;-85
2023/05/24 01:50:35;;;;;;;3.33;1.67;;;;;;;;;;12883745;23;20028;-85
2023/05/24 01:55:38;;;;;;;3.28;1.73;;;;;;;;;;12884701;23;20426;-85
2023/05/24 02:00:45;;;;;;;2.97;1.73;;;;;;;;;;12885163;23;20028;-84
2023/05/24 02:05:48;;;;;;;1.73;1.38;;;;;;;;;;12930500;23;20063;-83
2023/05/24 02:10:51;;;;;;;4.13;1.67;;;;;;;;;;12882452;23;20371;-84
2023/05/24 02:15:56;;;;;;;2.67;1.50;;;;;;;;;;12881345;23;20455;-84
2023/05/24 02:21:01;;;;;;;2.33;1.35;;;;;;;;;;12881788;23;20054;-84
2023/05/24 02:26:05;;;;;;;3.30;1.45;;;;;;;;;;12882847;23;20020;-85
2023/05/24 02:31:09;;;;;;;3.20;1.30;;;;;;;;;;12880653;23;20502;-85
2023/05/24 02:36:13;;;;;;;3.15;1.30;;;;;;;;;;12883241;23;20020;-85
2023/05/24 02:41:17;;;;;;;3.80;1.73;;;;;;;;;;12927580;23;20044;-84
2023/05/24 02:46:21;;;;;;;3.03;1.60;;;;;;;;;;12883690;23;20012;-83
2023/05/24 02:51:25;;;;;;;3.33;1.40;;;;;;;;;;12881669;23;20447;-83
2023/05/24 02:56:28;;;;;;;3.33;1.40;;;;;;;;;;12883108;23;20023;-84
2023/05/24 03:01:34;;;;;;;2.10;1.42;;;;;;;;;;12881982;23;20054;-84
2023/05/24 03:06:38;;;;;;;3.10;1.40;;;;;;;;;;12883109;23;20031;-84
2023/05/24 03:11:41;;;;;;;3.33;1.42;;;;;;;;;;12880205;23;20027;-84
2023/05/24 03:16:46;;;;;;;1.50;1.17;;;;;;;;;;12881598;23;20398;-84
2023/05/24 03:21:49;;;;;;;3.08;1.27;;;;;;;;;;12881087;23;20031;-84
2023/05/24 03:26:53;;;;;;;3.40;1.50;;;;;;;;;;12881862;23;20016;-84
2023/05/24 03:31:58;;;;;;;2.22;1.33;;;;;;;;;;12904226;23;20355;-83
2023/05/24 03:37:01;;;;;;;1.88;1.27;;;;;;;;;;12881022;23;20028;-83
2023/05/24 03:42:05;;;;;;;1.80;1.17;;;;;;;;;;12880180;23;20655;-83
2023/05/24 03:47:10;;;;;;;3.63;1.63;;;;;;;;;;12878775;23;20028;-84
2023/05/24 03:52:13;;;;;;;3.17;1.23;;;;;;;;;;12879850;23;20663;-83
2023/05/24 03:57:16;;;;;;;3.15;1.48;;;;;;;;;;12881221;23;20387;-83
2023/05/24 04:02:21;;;;;;;1.77;1.50;;;;;;;;;;12880379;23;20091;-83
2023/05/24 04:07:24;;;;;;;4.15;1.70;;;;;;;;;;12882817;23;20345;-84
2023/05/24 04:12:28;;;;;;;2.70;1.48;;;;;;;;;;12883351;23;20016;-84
2023/05/24 04:17:33;;;;;;;1.88;1.50;;;;;;;;;;12902440;23;20356;-83
2023/05/24 04:22:37;;;;;;;2.47;1.23;;;;;;;;;;12873955;23;20036;-84
2023/05/24 04:27:40;;;;;;;4.45;1.65;;;;;;;;;;12875293;23;20115;-84
2023/05/24 04:32:45;;;;;;;3.67;1.60;;;;;;;;;;12880931;23;20070;-85
2023/05/24 04:37:49;;;;;;;3.35;1.90;;;;;;;;;;12923525;23;20108;-84
2023/05/24 04:42:53;;;;;;;3.58;1.58;;;;;;;;;;12885472;23;20074;-85
2023/05/24 04:47:57;;;;;;;3.65;1.60;;;;;;;;;;12886664;23;20024;-83
2023/05/24 04:53:01;;;;;;;3.10;1.25;;;;;;;;;;12883562;23;20016;-83
2023/05/24 04:58:04;;;;;;;2.85;1.40;;;;;;;;;;12889861;23;20020;-84
2023/05/24 05:03:09;;;;;;;3.20;1.40;;;;;;;;;;12918178;23;20024;-84
2023/05/24 05:08:12;;;;;;;2.28;1.33;;;;;;;;;;12924558;23;20028;-86
2023/05/24 05:13:16;;;;;;;2.42;1.50;;;;;;;;;;12907115;23;20365;-85
2023/05/24 05:18:21;;;;;;;2.55;1.20;;;;;;;;;;12881255;23;20380;-86
2023/05/24 05:23:24;;;;;;;4.60;1.63;;;;;;;;;;12906254;23;20024;-85
2023/05/24 05:28:27;;;;;;;2.97;1.20;;;;;;;;;;12884853;23;20067;-84
2023/05/24 05:33:33;;;;;;;4.22;1.42;;;;;;;;;;12885957;23;20054;-84
2023/05/24 05:38:36;;;;;;;3.80;1.02;;;;;;;;;;12913920;23;20044;-85
2023/05/24 05:43:39;;;;;;;3.55;1.25;;;;;;;;;;12919560;23;20031;-84
2023/05/24 05:48:45;;;;;;;3.72;1.30;;;;;;;;;;12883791;23;20081;-84
2023/05/24 05:53:48;;;;;;;2.77;0.87;;;;;;;;;;12916375;23;20387;-83
2023/05/24 05:58:51;;;;;;;3.75;1.30;;;;;;;;;;12883220;23;20028;-84
2023/05/24 06:03:56;;;;;;;3.25;1.20;;;;;;;;;;12883567;23;20027;-84
2023/05/24 06:09:00;;;;;;;6.45;1.40;;;;;;;;;;12884364;23;20020;-83
2023/05/24 06:14:03;;;;;;;4.25;1.30;;;;;;;;;;12885274;23;20099;-83
2023/05/24 06:19:08;;;;;;;4.03;1.42;;;;;;;;;;12883993;23;20036;-84
2023/05/24 06:24:12;;;;;;;11.05;2.40;;;;;;;;;;12915671;23;20028;-84
2023/05/24 06:29:15;;;;;;;4.15;1.45;;;;;;;;;;12911871;23;20024;-85
2023/05/24 06:34:20;;;;;;;4.13;1.45;;;;;;;;;;12879449;23;20051;-85
2023/05/24 06:39:24;;;;;;;5.75;1.70;;;;;;;;;;12879180;23;20035;-86
2023/05/24 06:44:33;;;;;;;4.82;1.35;;;;;;;;;;12878497;23;20024;-85
2023/05/24 06:49:37;;;;;;;7.97;1.67;;;;;;;;;;12878077;23;20410;-85
2023/05/24 06:54:41;;;;;;;5.00;1.80;;;;;;;;;;12904529;23;20016;-85
2023/05/24 06:59:44;;;;;;;3.65;1.20;;;;;;;;;;12877882;23;20399;-85
2023/05/24 07:04:49;;;;;;;3.22;1.33;;;;;;;;;;12904803;23;20028;-87
2023/05/24 07:09:52;;;;;;;5.85;1.25;;;;;;;;;;12898595;23;20020;-85
2023/05/24 07:14:56;;;;;;;7.95;1.60;;;;;;;;;;12901513;23;20021;-85
2023/05/24 07:20:01;;;;;;;9.18;2.22;;;;;;;;;;12874994;23;20023;-85
2023/05/24 07:25:05;;;;;;;4.57;1.33;;;;;;;;;;12902105;23;20491;-86
2023/05/24 07:30:09;;;;;;;3.45;1.40;;;;;;;;;;12874737;23;20028;-85
2023/05/24 07:35:21;;;;;;;3.92;1.40;;;;;;;;;;12902719;23;20456;-85
2023/05/24 07:40:25;;;;;;;4.20;1.27;;;;;;;;;;12904981;23;20027;-86
2023/05/24 07:45:28;;;;;;;4.90;1.63;;;;;;;;;;12877124;23;20020;-86
2023/05/24 07:50:33;;;;;;;4.15;1.80;;;;;;;;;;12877266;23;20020;-84
2023/05/24 07:55:36;;;;;;;4.55;1.65;;;;;;;;;;12883804;23;20051;-85
2023/05/24 08:00:40;;;;;;;3.67;1.17;;;;;;;;;;12884990;23;20044;-84
2023/05/24 08:05:44;;;;;;;4.55;1.23;;;;;;;;;;12885541;23;20413;-85
2023/05/24 08:10:48;;;;;;;5.85;2.08;;;;;;;;;;12911738;23;20054;-85
2023/05/24 08:15:51;;;;;;;4.75;1.30;;;;;;;;;;12885393;23;20097;-85
2023/05/24 08:20:56;;;;;;;3.50;1.25;;;;;;;;;;12914940;23;20031;-85
2023/05/24 08:25:59;;;;;;;3.42;1.30;;;;;;;;;;12883367;23;20027;-85
2023/05/24 08:31:03;;;;;;;4.95;1.60;;;;;;;;;;12876549;23;20106;-85
2023/05/24 08:36:08;;;;;;;5.20;1.20;;;;;;;;;;12903290;23;20027;-84
2023/05/24 08:41:12;;;;;;;8.65;1.80;;;;;;;;;;12876186;23;20048;-85
2023/05/24 08:46:17;;;;;;;3.75;1.33;;;;;;;;;;12903347;23;20107;-84
2023/05/24 08:51:22;;;;;;;2.67;1.25;;;;;;;;;;12876720;23;20499;-85
2023/05/24 08:56:26;;;;;;;5.50;1.58;;;;;;;;;;12876113;23;20020;-85
2023/05/24 09:01:32;;;;;;;5.07;1.67;;;;;;;;;;12875763;23;20036;-85
2023/05/24 09:06:37;;;;;;;;;;;;;;;;;;12876892;23;20021;-85
2023/05/24 09:11:42;;;;;;;7.00;1.90;;;;;;;;;;12876546;23;19922;-85
2023/05/24 09:16:45;;;;;;;3.45;1.38;;;;;;;;;;12903967;23;20023;-85
2023/05/24 09:21:52;;;;;;;2.92;1.13;;;;;;;;;;12875363;23;20074;-85
2023/05/24 09:26:56;;;;;;;3.63;1.20;;;;;;;;;;12876634;23;20035;-85
2023/05/24 09:31:59;;;;;;;3.40;1.45;;;;;;;;;;12916180;23;20020;-85
2023/05/24 09:37:05;;;;;;;7.57;2.17;;;;;;;;;;12901260;23;20059;-85
2023/05/24 09:42:09;;;;;;;4.25;1.40;;;;;;;;;;12878200;23;20040;-85
2023/05/24 09:47:12;;;;;;;4.97;1.33;;;;;;;;;;12885946;23;20035;-85
2023/05/24 09:52:17;;;;;;;4.40;1.73;;;;;;;;;;12883522;23;20024;-85
2023/05/24 09:57:21;;;;;;;6.05;2.20;;;;;;;;;;12924947;23;20028;-85
2023/05/24 10:02:26;;;;;;;8.75;1.77;;;;;;;;;;12909524;23;20024;-84
2023/05/24 10:07:34;;;;;;;4.03;1.25;;;;;;;;;;12885264;23;20066;-85
2023/05/24 10:12:41;;;;;;;11.63;3.08;;;;;;;;;;12884811;23;20103;-83
2023/05/24 10:17:45;;;;;;;9.77;2.55;;;;;;;;;;12885198;23;20035;-86
2023/05/24 10:23:00;;;;;;;5.03;2.10;;;;;;;;;;12908280;23;20090;-86
2023/05/24 10:28:08;;;;;;;4.25;1.50;;;;;;;;;;12881944;23;20060;-87
2023/05/24 10:33:13;;;;;;;8.88;2.83;;;;;;;;;;12880459;23;20059;-87
2023/05/24 10:38:22;;;;;;;4.35;1.63;;;;;;;;;;12881678;23;20024;-86
2023/05/24 10:43:26;;;;;;;3.88;1.40;;;;;;;;;;12917148;23;20027;-85
2023/05/24 10:48:37;;;;;;;1.92;1.20;;;;;;;;;;12881332;23;20039;-86
2023/05/24 10:53:41;;;;;;;3.83;1.33;;;;;;;;;;12880673;23;20051;-87
2023/05/24 10:58:57;;;;;;;4.72;1.38;;;;;;;;;;12906634;23;20056;-86
2023/05/24 11:04:11;;;;;;;7.78;3.20;;;;;;;;;;12882322;23;20043;-86
2023/05/24 11:09:19;;;;;;;4.90;2.28;;;;;;;;;;12906232;23;20051;-85
2023/05/24 11:14:24;;;;;;;7.35;1.92;;;;;;;;;;12882358;23;20058;-85
2023/05/24 11:19:33;;;;;;;6.32;2.08;;;;;;;;;;12907141;23;20044;-85
2023/05/24 11:24:40;;;;;;;5.38;1.30;;;;;;;;;;12880154;23;20423;-86
2023/05/24 11:29:44;;;;;;;7.53;2.15;;;;;;;;;;12880766;23;20024;-85
2023/05/24 11:34:49;;;;;;;5.88;1.88;;;;;;;;;;12841939;23;20048;-86
2023/05/24 11:39:54;;;;;;;4.70;1.58;;;;;;;;;;12816927;23;20651;-85
2023/05/24 11:44:58;;;;;;;3.03;1.05;;;;;;;;;;12843551;23;20079;-87
2023/05/24 11:50:01;;;;;;;2.60;1.30;;;;;;;;;;12846603;23;20028;-86
2023/05/24 11:55:07;;;;;;;4.63;1.50;;;;;;;;;;12841803;23;20037;-86
2023/05/24 12:00:15;;;;;;;5.07;1.65;;;;;;;;;;12841973;23;20031;-86
2023/05/24 12:05:19;;;;;;;2.78;1.10;;;;;;;;;;12816267;23;20063;-86
2023/05/24 12:10:24;;;;;;;3.20;1.40;;;;;;;;;;12817451;23;20091;-87
2023/05/24 12:15:29;;;;;;;3.97;1.23;;;;;;;;;;12817246;23;20027;-84
2023/05/24 12:20:32;;;;;;;4.45;1.50;;;;;;;;;;12942475;22;20015;-87
2023/05/24 12:25:37;;;;;;;2.90;1.35;;;;;;;;;;12942428;22;20023;-87
2023/05/24 12:30:42;;;;;;;3.25;1.45;;;;;;;;;;12940993;22;20351;-87
2023/05/24 12:35:46;;;;;;;3.08;1.30;;;;;;;;;;12941180;22;20028;-86
2023/05/24 12:40:51;;;;;;;2.25;1.45;;;;;;;;;;12966975;22;20020;-86
2023/05/24 12:46:02;;;;;;;4.88;1.42;;;;;;;;;;12942233;22;20323;-85
2023/05/24 12:51:07;;;;;;;4.60;1.75;;;;;;;;;;12986796;22;20027;-85
2023/05/24 12:56:11;;;;;;;4.65;1.08;;;;;;;;;;12968413;22;20061;-86
2023/05/24 13:01:15;;;;;;;4.40;1.42;;;;;;;;;;12968190;22;20066;-87
2023/05/24 13:06:18;;;;;;;3.22;1.10;;;;;;;;;;12942199;22;20012;-86
2023/05/24 13:11:24;;;;;;;3.72;1.48;;;;;;;;;;12968698;22;20459;-86
2023/05/24 13:16:27;;;;;;;3.17;1.40;;;;;;;;;;12942045;22;20031;-86
2023/05/24 13:21:30;;;;;;;2.78;1.42;;;;;;;;;;12944605;22;20069;-87
2023/05/24 13:26:36;;;;;;;5.22;1.55;;;;;;;;;;12971616;22;20022;-86
2023/05/24 13:31:40;;;;;;;4.32;1.20;;;;;;;;;;12971541;22;20026;-86
2023/05/24 13:36:44;;;;;;;2.17;0.98;;;;;;;;;;12946368;22;20047;-86
2023/05/24 13:41:49;;;;;;;2.58;1.17;;;;;;;;;;12944446;22;20040;-85
2023/05/24 13:46:53;;;;;;;1.77;0.82;;;;;;;;;;12972760;22;20022;-86
2023/05/24 13:51:56;;;;;;;5.50;1.55;;;;;;;;;;12972556;22;20073;-86
2023/05/24 13:57:01;;;;;;;3.38;1.25;;;;;;;;;;12973865;22;20055;-87
2023/05/24 14:02:05;;;;;;;4.50;1.52;;;;;;;;;;12970521;22;20023;-85
2023/05/24 14:07:12;;;;;;;5.55;1.58;;;;;;;;;;12945203;22;20077;-86
2023/05/24 14:12:16;;;;;;;5.00;1.50;;;;;;;;;;12944293;22;20324;-86
2023/05/24 14:17:20;;;;;;;3.67;1.50;;;;;;;;;;12972013;22;20011;-87
2023/05/24 14:22:24;;;;;;;3.30;1.60;;;;;;;;;;12941953;22;20028;-86
2023/05/24 14:27:29;;;;;;;7.15;2.03;;;;;;;;;;12943924;22;20023;-86
2023/05/24 14:32:32;;;;;;;3.40;1.10;;;;;;;;;;12943097;22;20031;-86
2023/05/24 14:37:36;;;;;;;3.25;1.20;;;;;;;;;;12944936;22;20055;-85
2023/05/24 14:42:42;;;;;;;2.30;1.00;;;;;;;;;;12971343;22;20073;-86
2023/05/24 14:47:45;;;;;;;2.75;1.20;;;;;;;;;;12944245;22;20042;-86
2023/05/24 14:52:48;;;;;;;3.60;1.40;;;;;;;;;;12942058;22;20054;-86
2023/05/24 14:57:53;;;;;;;3.42;1.65;;;;;;;;;;12943482;22;20344;-85
2023/05/24 15:02:57;;;;;;;4.00;1.30;;;;;;;;;;12980938;22;20023;-85
2023/05/24 15:08:00;;;;;;;2.17;1.17;;;;;;;;;;12944447;22;20078;-86
2023/05/24 15:13:05;;;;;;;4.47;1.40;;;;;;;;;;12966445;22;20035;-86
2023/05/24 15:18:08;;;;;;;3.58;1.27;;;;;;;;;;12937676;22;20023;-85
2023/05/24 15:23:12;;;;;;;5.18;1.10;;;;;;;;;;12974509;22;20027;-85
2023/05/24 15:28:17;;;;;;;2.97;1.08;;;;;;;;;;12938906;22;20023;-85
2023/05/24 15:33:20;;;;;;;2.88;1.05;;;;;;;;;;12970784;22;20027;-84
2023/05/24 15:38:23;;;;;;;2.05;0.93;;;;;;;;;;12945750;22;20019;-85
2023/05/24 15:43:30;;;;;;;4.10;1.13;;;;;;;;;;12944099;22;20264;-84
2023/05/24 15:48:33;;;;;;;4.13;1.65;;;;;;;;;;12945979;22;20016;-84
2023/05/24 15:53:37;;;;;;;5.90;1.52;;;;;;;;;;12945244;22;20028;-83
2023/05/24 15:58:41;;;;;;;2.25;1.15;;;;;;;;;;12976771;22;20071;-84
2023/05/24 16:03:45;;;;;;;3.38;0.95;;;;;;;;;;12942042;22;20041;-84
2023/05/24 16:08:49;;;;;;;3.10;1.48;;;;;;;;;;12943414;22;20030;-84
2023/05/24 16:13:54;;;;;;;4.47;1.77;;;;;;;;;;12946971;22;20031;-84
2023/05/24 16:18:57;;;;;;;5.18;1.40;;;;;;;;;;12951660;22;20042;-84
2023/05/24 16:24:02;;;;;;;4.72;1.30;;;;;;;;;;12948715;22;20031;-84
2023/05/24 16:29:09;;;;;;;2.33;1.13;;;;;;;;;;12943157;22;20054;-84
2023/05/24 16:34:12;;;;;;;2.00;1.10;;;;;;;;;;12942209;22;20027;-85
2023/05/24 16:39:15;;;;;;;4.40;1.20;;;;;;;;;;12938235;22;20035;-85
2023/05/24 16:44:20;;;;;;;4.75;1.50;;;;;;;;;;12940262;22;20054;-84
2023/05/24 16:49:23;;;;;;;3.15;1.30;;;;;;;;;;12938900;22;20403;-84
2023/05/24 16:54:27;;;;;;;3.72;1.13;;;;;;;;;;12946848;22;20026;-84
2023/05/24 16:59:31;;;;;;;2.33;1.08;;;;;;;;;;12946719;22;20023;-84
2023/05/24 17:04:35;;;;;;;3.10;1.30;;;;;;;;;;12946502;22;20046;-84
2023/05/24 17:09:39;;;;;;;1.70;1.10;;;;;;;;;;12890898;22;20028;-85
2023/05/24 17:14:44;;;;;;;3.53;1.00;;;;;;;;;;12951723;22;20039;-90
2023/05/24 17:19:47;;;;;;;4.72;1.30;;;;;;;;;;12977140;22;20024;-91
2023/05/24 17:24:51;;;;;;;2.13;1.05;;;;;;;;;;12953431;22;20024;-88
2023/05/24 17:30:22;;;;;;;4.43;1.00;;;;;;;;;;12982706;22;20367;-88
2023/05/24 17:35:30;;;;;;;;;;;;;;;;;;12915603;22;20034;-88
2023/05/24 17:40:39;;;;;;;4.70;1.55;;;;;;;;;;12939005;22;19946;-90
2023/05/24 17:45:44;;;;;;;4.75;1.27;;;;;;;;;;12972023;22;20026;-86
2023/05/24 17:50:50;;;;;;;4.70;1.33;;;;;;;;;;12943170;22;20015;-86
2023/05/24 17:55:58;;;;;;;2.67;1.27;;;;;;;;;;12946758;22;20359;-90
2023/05/24 18:01:10;;;;;;;3.45;1.50;;;;;;;;;;12952242;22;20023;-91
2023/05/24 18:06:25;;;;;;;2.45;1.30;;;;;;;;;;12948656;22;20024;-92
2023/05/24 18:11:34;;;;;;;2.37;1.10;;;;;;;;;;12950923;22;20030;-89
2023/05/24 18:16:44;;;;;;;2.38;1.35;;;;;;;;;;12948041;22;20027;-89
2023/05/24 18:21:49;;;;;;;2.20;0.90;;;;;;;;;;12976418;22;20049;-90
2023/05/24 18:26:52;;;;;;;2.50;1.13;;;;;;;;;;12949759;22;20359;-89
2023/05/24 18:31:57;;;;;;;3.35;1.27;;;;;;;;;;12949526;22;20023;-90
2023/05/24 18:37:05;;;;;;;4.10;1.30;;;;;;;;;;12950396;22;20099;-90
2023/05/24 18:42:08;;;;;;;3.78;1.45;;;;;;;;;;12949728;22;20048;-93
2023/05/24 18:47:13;;;;;;;3.60;1.13;;;;;;;;;;12975715;22;20074;-89
2023/05/24 18:52:17;;;;;;;4.28;1.23;;;;;;;;;;12947959;22;20024;-92
2023/05/24 18:57:21;;;;;;;3.08;1.02;;;;;;;;;;12950336;22;20028;-90
2023/05/24 19:02:26;;;;;;;2.83;1.10;;;;;;;;;;12948555;22;20031;-89
2023/05/24 19:07:30;;;;;;;5.40;1.20;;;;;;;;;;12948523;22;20023;-90
2023/05/24 19:12:33;;;;;;;3.20;1.60;;;;;;;;;;12976552;22;20107;-92
2023/05/24 19:17:39;;;;;;;3.30;1.20;;;;;;;;;;12975265;22;20055;-90
2023/05/24 19:22:42;;;;;;;4.05;1.35;;;;;;;;;;12975475;22;20023;-89
2023/05/24 19:27:47;;;;;;;4.85;1.23;;;;;;;;;;12947428;22;20023;-92
2023/05/24 19:33:02;;;;;;;2.97;1.33;;;;;;;;;;12945989;22;20023;-90
2023/05/24 19:38:06;;;;;;;3.75;1.10;;;;;;;;;;12944840;22;20095;-89
2023/05/24 19:43:10;;;;;;;2.67;1.17;;;;;;;;;;12946986;22;20043;-93
2023/05/24 19:48:15;;;;;;;4.47;1.38;;;;;;;;;;12946688;22;20094;-89
2023/05/24 19:53:20;;;;;;;3.77;1.30;;;;;;;;;;12947472;22;20028;-90
2023/05/24 19:58:25;;;;;;;6.22;1.20;;;;;;;;;;12947118;22;20749;-90
2023/05/24 20:03:30;;;;;;;4.07;1.17;;;;;;;;;;12975116;22;20024;-90
2023/05/24 20:08:36;;;;;;;3.45;1.20;;;;;;;;;;12946458;22;20028;-90
2023/05/24 20:13:42;;;;;;;5.07;1.67;;;;;;;;;;12947724;22;20028;-93
2023/05/24 20:18:47;;;;;;;4.30;1.40;;;;;;;;;;12976221;22;20024;-89
2023/05/24 20:23:54;;;;;;;3.42;1.10;;;;;;;;;;12976643;22;20027;-90
2023/05/24 20:29:02;;;;;;;2.25;1.40;;;;;;;;;;12948061;22;20020;-91
2023/05/24 20:34:12;;;;;;;4.13;1.40;;;;;;;;;;12949730;22;20020;-90
2023/05/24 20:39:15;;;;;;;4.40;1.70;;;;;;;;;;12950162;22;20355;-90
2023/05/24 20:44:19;;;;;;;5.40;1.70;;;;;;;;;;12949992;22;20047;-89
2023/05/24 20:49:24;;;;;;;4.22;1.90;;;;;;;;;;12946754;22;20019;-90
2023/05/24 20:54:28;;;;;;;3.72;1.52;;;;;;;;;;12947670;22;20098;-90
2023/05/24 20:59:31;;;;;;;2.80;1.45;;;;;;;;;;12972300;22;20028;-89
2023/05/24 21:04:36;;;;;;;3.47;1.70;;;;;;;;;;12945789;22;20026;-86
2023/05/24 21:09:40;;;;;;;3.63;1.38;;;;;;;;;;12971788;22;20507;-90
2023/05/24 21:14:44;;;;;;;3.55;1.55;;;;;;;;;;12945072;22;20030;-86
2023/05/24 21:19:49;;;;;;;2.45;1.50;;;;;;;;;;12946168;22;20019;-87
2023/05/24 21:24:52;;;;;;;3.45;1.55;;;;;;;;;;12946651;22;20019;-87
2023/05/24 21:29:56;;;;;;;2.42;1.52;;;;;;;;;;12969192;22;20466;-87
2023/05/24 21:35:01;;;;;;;4.20;1.42;;;;;;;;;;12963145;22;20110;-84
2023/05/24 21:40:06;;;;;;;4.25;2.00;;;;;;;;;;12961046;22;20020;-84
2023/05/24 21:45:11;;;;;;;3.67;1.90;;;;;;;;;;12938996;22;20027;-85
2023/05/24 21:50:15;;;;;;;2.22;1.23;;;;;;;;;;12939342;22;20074;-84
2023/05/24 21:55:19;;;;;;;6.63;1.70;;;;;;;;;;12938346;22;20070;-83
2023/05/24 22:00:23;;;;;;;3.60;1.45;;;;;;;;;;12937834;22;20811;-84
2023/05/24 22:05:29;;;;;;;3.88;1.83;;;;;;;;;;12936831;22;20078;-84
2023/05/24 22:10:32;;;;;;;;;;;;;;;;;;12965643;22;20016;-85
2023/05/24 22:15:36;;;;;;;3.15;1.38;;;;;;;;;;12938589;22;19923;-84
2023/05/24 22:20:43;;;;;;;3.10;1.33;;;;;;;;;;12985915;22;20079;-84
2023/05/24 22:25:46;;;;;;;5.22;1.30;;;;;;;;;;12937984;22;20070;-85
2023/05/24 22:30:51;;;;;;;3.90;1.73;;;;;;;;;;12937932;22;20019;-85
2023/05/24 22:35:55;;;;;;;3.78;1.58;;;;;;;;;;12937627;22;20095;-85
2023/05/24 22:40:59;;;;;;;4.00;1.70;;;;;;;;;;12964659;22;20518;-84
2023/05/24 22:46:02;;;;;;;4.78;1.73;;;;;;;;;;12983996;22;20019;-84
2023/05/24 22:51:07;;;;;;;2.30;1.30;;;;;;;;;;12937172;22;20023;-85
2023/05/24 22:56:11;;;;;;;2.65;1.63;;;;;;;;;;12938519;22;20016;-84
2023/05/24 23:01:15;;;;;;;2.42;1.52;;;;;;;;;;12935611;22;20040;-85
2023/05/24 23:06:20;;;;;;;3.65;1.80;;;;;;;;;;12951829;22;20046;-85
2023/05/24 23:11:25;;;;;;;3.88;1.60;;;;;;;;;;12889340;23;20020;-85
2023/05/24 23:16:28;;;;;;;4.20;1.55;;;;;;;;;;12851834;23;20508;-86
2023/05/24 23:21:35;;;;;;;3.25;1.48;;;;;;;;;;12852704;23;20029;-86
2023/05/24 23:26:39;;;;;;;2.70;1.58;;;;;;;;;;12825421;23;20086;-87
2023/05/24 23:31:42;;;;;;;2.08;1.48;;;;;;;;;;12869066;23;20644;-86
2023/05/24 23:36:47;;;;;;;5.40;1.70;;;;;;;;;;12868647;23;20024;-86
2023/05/24 23:41:50;;;;;;;3.70;1.90;;;;;;;;;;12849955;23;20028;-86
2023/05/24 23:46:55;;;;;;;3.30;1.40;;;;;;;;;;12851473;23;20020;-86
2023/05/24 23:51:59;;;;;;;3.08;1.50;;;;;;;;;;12824207;23;20075;-86
2023/05/24 23:57:06;;;;;;;4.63;1.80;;;;;;;;;;12851228;23;20017;-86
